Time;durP1;ratioP1;P1;durP2;ratioP2;P2;SDS_P1;SDS_P2;PMS_P1;PMS_P2;Temp;Humidity;BMP_temperature;BMP_pressure;BME280_temperature;BME280_humidity;BME280_pressure;Samples;Min_cycle;Max_cycle;Signal;HPM_P1;HPM_P2
2022/12/16 00:01:35;;;;;;;13.32;9.43;;;;;;;-2.51;72.20;99250.06;10368423;28;20084;-48
2022/12/16 00:06:36;;;;;;;12.18;8.88;;;;;;;-2.56;72.62;99251.19;10367689;28;20045;-48
2022/12/16 00:11:37;;;;;;;12.45;8.68;;;;;;;-2.57;72.49;99258.13;10366054;28;20156;-47
2022/12/16 00:16:39;;;;;;;10.55;7.47;;;;;;;-2.45;71.93;99248.09;10365429;28;20118;-47
2022/12/16 00:21:41;;;;;;;11.45;8.73;;;;;;;-2.62;73.23;99241.84;10366638;28;20701;-50
2022/12/16 00:26:42;;;;;;;10.80;8.23;;;;;;;-2.58;73.01;99238.22;10367984;28;20056;-48
2022/12/16 00:31:46;;;;;;;10.95;7.45;;;;;;;-2.49;72.45;99243.03;10367817;28;20587;-49
2022/12/16 00:36:48;;;;;;;11.88;7.75;;;;;;;-2.57;73.08;99242.50;10364670;28;20781;-48
2022/12/16 00:41:50;;;;;;;9.18;7.78;;;;;;;-2.62;73.64;99244.47;10371362;28;20056;-47
2022/12/16 00:46:52;;;;;;;11.48;7.68;;;;;;;-2.60;73.60;99231.38;10365222;28;20049;-48
2022/12/16 00:51:55;;;;;;;10.50;7.43;;;;;;;-2.45;73.53;99242.88;10364749;28;20132;-53
2022/12/16 00:56:56;;;;;;;11.20;7.38;;;;;;;-2.39;73.24;99229.59;10364525;28;20100;-48
2022/12/16 01:01:58;;;;;;;9.13;7.10;;;;;;;-2.39;72.54;99237.41;10362939;28;20163;-48
2022/12/16 01:06:59;;;;;;;12.43;8.23;;;;;;;-2.42;72.60;99243.59;10363691;28;20075;-48
2022/12/16 01:12:01;;;;;;;11.45;7.40;;;;;;;-2.40;72.37;99251.34;10363664;28;20057;-47
2022/12/16 01:17:02;;;;;;;10.55;8.07;;;;;;;-2.32;71.79;99262.31;10368034;28;20054;-48
2022/12/16 01:22:04;;;;;;;9.95;7.15;;;;;;;-2.33;71.97;99263.22;10365559;28;20072;-49
2022/12/16 01:27:05;;;;;;;9.40;6.93;;;;;;;-2.36;71.70;99273.75;10363679;28;20200;-48
2022/12/16 01:32:11;;;;;;;9.23;6.97;;;;;;;-2.30;71.33;99281.31;10364790;28;20056;-48
2022/12/16 01:37:12;;;;;;;9.30;7.57;;;;;;;-2.38;71.51;99289.47;10361326;28;20049;-48
2022/12/16 01:42:16;;;;;;;10.75;8.07;;;;;;;-2.39;71.22;99299.97;10361553;28;20601;-48
2022/12/16 01:47:29;;;;;;;10.27;8.15;;;;;;;-2.34;71.08;99308.47;10362772;28;20758;-47
2022/12/16 01:52:35;;;;;;;10.40;7.88;;;;;;;-2.33;71.67;99317.94;10359250;28;20057;-47
2022/12/16 01:57:45;;;;;;;10.25;7.50;;;;;;;-2.32;70.84;99312.66;10368220;28;20042;-48
2022/12/16 02:02:48;;;;;;;10.85;7.45;;;;;;;-2.27;70.96;99316.84;10371045;28;20052;-49
2022/12/16 02:08:10;;;;;;;11.13;8.65;;;;;;;-2.31;70.93;99323.97;10362658;28;20103;-47
2022/12/16 02:13:12;;;;;;;10.65;7.57;;;;;;;-2.32;71.77;99319.66;10370320;28;20053;-47
2022/12/16 02:18:36;;;;;;;10.00;7.80;;;;;;;-2.42;71.78;99326.16;10365059;28;20057;-49
2022/12/16 02:24:03;;;;;;;15.02;7.95;;;;;;;-2.44;72.33;99315.81;10364964;28;20132;-48
2022/12/16 02:29:22;;;;;;;9.82;7.05;;;;;;;-2.42;72.32;99315.75;10360448;28;20575;-46
2022/12/16 02:34:36;;;;;;;12.77;7.72;;;;;;;-2.46;72.08;99308.94;10353895;28;20812;-49
2022/12/16 02:39:51;;;;;;;11.00;7.30;;;;;;;-2.50;71.85;99319.50;10356413;28;20069;-48
2022/12/16 02:45:00;;;;;;;11.23;7.30;;;;;;;-2.60;72.39;99304.31;10362144;28;20146;-48
2022/12/16 02:50:02;;;;;;;8.52;6.53;;;;;;;-2.51;72.59;99316.97;10365177;28;20198;-47
2022/12/16 02:55:07;;;;;;;10.07;6.78;;;;;;;-2.49;72.39;99320.38;10345240;22;20045;-72
2022/12/16 03:00:15;;;;;;;;;;;;;;;-2.51;72.53;99315.22;10434791;28;20049;-72
2022/12/16 03:05:26;;;;;;;8.68;5.95;;;;;;;-2.50;72.99;99316.91;10437901;28;20015;-71
2022/12/16 03:10:33;;;;;;;11.15;6.50;;;;;;;-2.50;73.47;99316.06;10470078;28;20056;-70
2022/12/16 03:15:35;;;;;;;9.10;5.93;;;;;;;-2.51;73.65;99316.97;10473831;28;20040;-71
2022/12/16 03:20:48;;;;;;;9.23;5.57;;;;;;;-2.53;73.36;99318.78;10470240;28;20053;-71
2022/12/16 03:25:55;;;;;;;10.95;5.43;;;;;;;-2.48;73.59;99303.81;10450463;28;20072;-70
2022/12/16 03:31:11;;;;;;;9.40;5.43;;;;;;;-2.45;73.64;99311.50;10441584;28;20233;-70
2022/12/16 03:36:20;;;;;;;9.13;5.20;;;;;;;-2.47;73.85;99302.06;10443552;28;20110;-70
2022/12/16 03:41:23;;;;;;;7.88;4.95;;;;;;;-2.50;74.26;99314.28;10424588;28;20056;-70
2022/12/16 03:46:25;;;;;;;8.25;5.53;;;;;;;-2.49;73.96;99326.41;10432549;28;20060;-70
2022/12/16 03:51:26;;;;;;;7.50;4.57;;;;;;;-2.58;74.10;99331.16;10433848;28;20051;-70
2022/12/16 03:56:28;;;;;;;6.95;4.85;;;;;;;-2.68;74.25;99331.53;10435166;28;20412;-69
2022/12/16 04:01:29;;;;;;;8.60;5.40;;;;;;;-2.57;74.28;99338.91;10447035;28;20155;-70
2022/12/16 04:06:31;;;;;;;7.28;5.07;;;;;;;-2.56;74.10;99327.59;10456248;28;20068;-70
2022/12/16 04:27:45;;;;;;;6.93;5.05;;;;;;;-2.59;73.60;99356.38;10455654;28;20068;-71
